Time;durP1;ratioP1;P1;durP2;ratioP2;P2;SDS_P1;SDS_P2;PMS_P1;PMS_P2;Temp;Humidity;BMP_temperature;BMP_pressure;BME280_temperature;BME280_humidity;BME280_pressure;Samples;Min_cycle;Max_cycle;Signal;HPM_P1;HPM_P2
2021/08/13 00:00:22;;;;;;;8.03;4.70;;;;;;;;;;2130630;27;20046;-42
2021/08/13 00:01:23;;;;;;;6.90;4.32;;;;;;;;;;2128510;27;20051;-43
2021/08/13 00:02:24;;;;;;;8.32;4.22;;;;;;;;;;2130052;27;20069;-42
2021/08/13 00:03:26;;;;;;;9.48;4.68;;;;;;;;;;2130562;27;20054;-42
2021/08/13 00:04:27;;;;;;;8.93;4.83;;;;;;;;;;2128673;27;20475;-49
2021/08/13 00:05:28;;;;;;;7.50;4.63;;;;;;;;;;2130340;27;20309;-48
2021/08/13 00:06:29;;;;;;;10.33;4.13;;;;;;;;;;2130498;27;20479;-47
2021/08/13 00:07:30;;;;;;;8.50;4.53;;;;;;;;;;2128217;27;20445;-49
2021/08/13 00:08:31;;;;;;;7.37;4.60;;;;;;;;;;2131068;27;20073;-50
2021/08/13 00:09:32;;;;;;;7.13;4.70;;;;;;;;;;2131926;27;20114;-48
2021/08/13 00:10:33;;;;;;;8.03;4.30;;;;;;;;;;2130620;27;20057;-48
2021/08/13 00:11:35;;;;;;;7.65;4.47;;;;;;;;;;2131898;27;20051;-46
2021/08/13 00:12:36;;;;;;;6.53;4.70;;;;;;;;;;2131789;27;20133;-45
2021/08/13 00:13:37;;;;;;;10.02;4.78;;;;;;;;;;2130201;27;20038;-46
2021/08/13 00:14:39;;;;;;;9.23;4.43;;;;;;;;;;2129204;27;20046;-49
2021/08/13 00:15:40;;;;;;;7.13;4.72;;;;;;;;;;2131864;27;20117;-47
2021/08/13 00:16:41;;;;;;;8.15;4.60;;;;;;;;;;2129801;27;20056;-47
2021/08/13 00:17:43;;;;;;;6.63;4.57;;;;;;;;;;2131820;27;20043;-48
2021/08/13 00:18:44;;;;;;;8.70;4.18;;;;;;;;;;2131516;27;20035;-50
2021/08/13 00:19:45;;;;;;;10.75;4.75;;;;;;;;;;2129955;27;20099;-47
2021/08/13 00:20:46;;;;;;;7.38;4.32;;;;;;;;;;2131775;27;20129;-50
2021/08/13 00:21:47;;;;;;;10.30;4.20;;;;;;;;;;2131461;27;20075;-47
2021/08/13 00:22:48;;;;;;;6.30;4.63;;;;;;;;;;2129793;27;20049;-50
2021/08/13 00:23:51;;;;;;;6.50;4.97;;;;;;;;;;2131733;27;20090;-47
2021/08/13 00:24:52;;;;;;;6.00;4.35;;;;;;;;;;2130437;27;20492;-46
2021/08/13 00:25:53;;;;;;;7.97;4.70;;;;;;;;;;2130984;27;20042;-49
2021/08/13 00:26:54;;;;;;;8.63;4.93;;;;;;;;;;2131748;27;20125;-46
2021/08/13 00:27:55;;;;;;;7.60;4.53;;;;;;;;;;2130439;27;20050;-50
2021/08/13 00:28:56;;;;;;;6.15;4.50;;;;;;;;;;2131770;27;20177;-45
2021/08/13 00:29:57;;;;;;;7.73;4.50;;;;;;;;;;2132274;27;20491;-48
2021/08/13 00:30:57;;;;;;;11.23;4.18;;;;;;;;;;2128817;27;20039;-46
2021/08/13 00:31:59;;;;;;;7.38;4.60;;;;;;;;;;2132016;27;20126;-47
2021/08/13 00:33:00;;;;;;;9.70;4.50;;;;;;;;;;2132237;27;20528;-46
2021/08/13 00:34:01;;;;;;;6.95;4.53;;;;;;;;;;2130199;27;20127;-47
2021/08/13 00:35:03;;;;;;;8.95;4.72;;;;;;;;;;2131897;27;20514;-48
2021/08/13 00:36:04;;;;;;;8.68;4.85;;;;;;;;;;2132291;27;20043;-48
2021/08/13 00:37:05;;;;;;;7.32;4.68;;;;;;;;;;2130190;27;20188;-46
2021/08/13 00:38:06;;;;;;;5.60;4.30;;;;;;;;;;2131904;27;20460;-48
2021/08/13 00:39:07;;;;;;;5.78;4.30;;;;;;;;;;2132317;27;20087;-47
2021/08/13 00:40:08;;;;;;;7.17;4.57;;;;;;;;;;2129995;27;20038;-46
2021/08/13 00:41:09;;;;;;;6.18;4.47;;;;;;;;;;2131073;27;20122;-50
2021/08/13 00:42:11;;;;;;;6.72;4.95;;;;;;;;;;2132122;27;20047;-45
2021/08/13 00:43:12;;;;;;;8.23;4.75;;;;;;;;;;2128721;27;20059;-48
2021/08/13 00:44:13;;;;;;;6.40;4.63;;;;;;;;;;2132166;27;20482;-47
2021/08/13 00:45:14;;;;;;;8.55;4.80;;;;;;;;;;2130798;27;20395;-46
2021/08/13 00:46:15;;;;;;;7.60;4.63;;;;;;;;;;2129945;27;20080;-49
2021/08/13 00:47:16;;;;;;;7.22;4.35;;;;;;;;;;2132128;27;20490;-46
2021/08/13 00:48:18;;;;;;;9.68;4.70;;;;;;;;;;2131338;27;20242;-48
2021/08/13 00:49:19;;;;;;;6.25;4.53;;;;;;;;;;2131105;27;20053;-46
2021/08/13 00:50:21;;;;;;;13.47;5.20;;;;;;;;;;2132322;27;20043;-48
2021/08/13 00:51:22;;;;;;;7.60;4.28;;;;;;;;;;2129964;27;20128;-46
2021/08/13 00:52:23;;;;;;;8.40;4.60;;;;;;;;;;2130735;27;20050;-47
2021/08/13 00:53:24;;;;;;;6.45;4.18;;;;;;;;;;2132164;27;20520;-49
2021/08/13 00:54:27;;;;;;;8.15;4.57;;;;;;;;;;2130077;27;20049;-46
2021/08/13 00:55:28;;;;;;;6.05;3.95;;;;;;;;;;2130974;27;20459;-49
2021/08/13 00:56:29;;;;;;;6.00;4.10;;;;;;;;;;2132290;27;20394;-47
2021/08/13 00:57:30;;;;;;;8.02;4.28;;;;;;;;;;2129733;27;20579;-46
2021/08/13 00:58:31;;;;;;;8.47;4.90;;;;;;;;;;2132018;27;20061;-47
2021/08/13 00:59:32;;;;;;;9.13;4.43;;;;;;;;;;2132257;27;20050;-48
2021/08/13 01:00:33;;;;;;;6.30;4.15;;;;;;;;;;2129816;27;20075;-48
2021/08/13 01:01:34;;;;;;;5.88;4.00;;;;;;;;;;2132283;27;20047;-49
2021/08/13 01:02:36;;;;;;;8.60;4.50;;;;;;;;;;2132073;27;20440;-50
2021/08/13 01:03:38;;;;;;;8.77;4.82;;;;;;;;;;2129629;27;20053;-47
2021/08/13 01:04:39;;;;;;;6.00;4.25;;;;;;;;;;2132103;27;20122;-47
2021/08/13 01:05:40;;;;;;;7.50;4.43;;;;;;;;;;2131752;27;20125;-49
2021/08/13 01:06:41;;;;;;;5.90;4.00;;;;;;;;;;2130120;27;20039;-48
2021/08/13 01:07:42;;;;;;;7.25;4.07;;;;;;;;;;2132152;27;20149;-48
2021/08/13 01:08:44;;;;;;;9.03;5.10;;;;;;;;;;2131571;27;20483;-47
2021/08/13 01:09:45;;;;;;;7.45;4.78;;;;;;;;;;2130276;27;20046;-47
2021/08/13 01:10:49;;;;;;;4.90;3.97;;;;;;;;;;2132047;27;20047;-46
2021/08/13 01:11:54;;;;;;;6.20;4.15;;;;;;;;;;2130336;27;20125;-50
2021/08/13 01:12:59;;;;;;;5.60;4.10;;;;;;;;;;2130943;27;20155;-48
2021/08/13 01:14:03;;;;;;;11.18;5.45;;;;;;;;;;2132007;27;20395;-46
2021/08/13 01:15:05;;;;;;;7.78;5.25;;;;;;;;;;2130070;27;20039;-47
2021/08/13 01:16:07;;;;;;;8.45;5.70;;;;;;;;;;2130724;27;20170;-48
2021/08/13 01:17:09;;;;;;;9.07;5.78;;;;;;;;;;2132145;27;20055;-49
2021/08/13 01:18:12;;;;;;;8.73;6.00;;;;;;;;;;2129771;27;20590;-47
2021/08/13 01:19:19;;;;;;;9.93;6.93;;;;;;;;;;2130831;27;20543;-48
2021/08/13 01:20:28;;;;;;;10.88;7.03;;;;;;;;;;2131032;27;20479;-46
2021/08/13 01:21:44;;;;;;;12.93;6.97;;;;;;;;;;2128671;27;20141;-46
2021/08/13 01:22:48;;;;;;;10.05;6.90;;;;;;;;;;2131566;27;20117;-48
2021/08/13 01:23:52;;;;;;;11.40;6.90;;;;;;;;;;2129781;27;20807;-45
2021/08/13 01:24:55;;;;;;;11.60;7.47;;;;;;;;;;2131291;27;20160;-47
2021/08/13 01:25:58;;;;;;;11.63;7.07;;;;;;;;;;2131762;27;20423;-46
2021/08/13 01:27:00;;;;;;;9.52;7.30;;;;;;;;;;2127835;27;20510;-46
2021/08/13 01:28:12;;;;;;;13.20;6.78;;;;;;;;;;2131368;27;20051;-46
2021/08/13 01:29:19;;;;;;;9.07;6.53;;;;;;;;;;2131503;27;20402;-49
2021/08/13 01:30:21;;;;;;;12.23;7.03;;;;;;;;;;2129123;27;20469;-46
2021/08/13 01:31:23;;;;;;;11.98;7.03;;;;;;;;;;2131620;27;20133;-46
2021/08/13 01:32:32;;;;;;;9.60;6.03;;;;;;;;;;2131107;27;20046;-46
2021/08/13 01:33:34;;;;;;;11.48;6.68;;;;;;;;;;2130167;27;20440;-50
2021/08/13 01:34:36;;;;;;;9.95;6.55;;;;;;;;;;2131678;27;20094;-48
2021/08/13 01:35:38;;;;;;;8.98;6.47;;;;;;;;;;2129540;27;20137;-49
2021/08/13 01:36:39;;;;;;;9.95;6.30;;;;;;;;;;2131046;27;20497;-48
2021/08/13 01:37:41;;;;;;;15.27;6.45;;;;;;;;;;2131573;27;20142;-46
2021/08/13 01:38:43;;;;;;;8.93;6.55;;;;;;;;;;2129439;27;20046;-47
2021/08/13 01:39:44;;;;;;;11.63;6.53;;;;;;;;;;2131330;27;20179;-48
2021/08/13 01:40:47;;;;;;;12.82;6.30;;;;;;;;;;2131574;27;20049;-49
2021/08/13 01:41:48;;;;;;;11.13;6.50;;;;;;;;;;2129564;27;20388;-47
2021/08/13 01:42:50;;;;;;;9.88;5.93;;;;;;;;;;2131273;27;20042;-47
2021/08/13 01:43:52;;;;;;;8.80;5.80;;;;;;;;;;2131686;27;20042;-47
2021/08/13 01:44:54;;;;;;;11.23;6.07;;;;;;;;;;2129562;27;20049;-47
2021/08/13 01:45:55;;;;;;;11.20;6.10;;;;;;;;;;2130724;27;20050;-48
2021/08/13 01:46:58;;;;;;;8.15;5.82;;;;;;;;;;2131573;27;20050;-48
2021/08/13 01:48:00;;;;;;;8.70;5.90;;;;;;;;;;2129009;27;20039;-47
2021/08/13 01:49:00;;;;;;;;;;;;;;;;;;2132224;27;20121;-46
2021/08/13 01:50:02;;;;;;;9.52;5.93;;;;;;;;;;2131792;27;19919;-46
2021/08/13 01:51:03;;;;;;;8.82;5.82;;;;;;;;;;2129428;27;20046;-46
2021/08/13 01:52:04;;;;;;;9.48;5.85;;;;;;;;;;2131864;27;20045;-47
2021/08/13 01:53:06;;;;;;;10.98;6.20;;;;;;;;;;2121886;27;20050;-46
2021/08/13 01:54:08;;;;;;;17.55;6.50;;;;;;;;;;2129616;27;20150;-46
2021/08/13 01:55:10;;;;;;;11.45;5.95;;;;;;;;;;2131624;27;20406;-46
2021/08/13 01:56:11;;;;;;;10.38;5.63;;;;;;;;;;2131304;27;20042;-46
2021/08/13 01:57:13;;;;;;;8.82;6.38;;;;;;;;;;2129690;27;20049;-48
2021/08/13 01:58:15;;;;;;;8.45;5.75;;;;;;;;;;2131847;27;20129;-47
2021/08/13 01:59:16;;;;;;;8.38;5.05;;;;;;;;;;2130432;27;20175;-49
2021/08/13 02:00:19;;;;;;;9.18;5.43;;;;;;;;;;2130782;27;20176;-47
2021/08/13 02:01:21;;;;;;;12.30;6.00;;;;;;;;;;2131518;27;20070;-46
2021/08/13 02:02:23;;;;;;;7.72;5.07;;;;;;;;;;2129670;27;20123;-46
2021/08/13 02:03:24;;;;;;;9.10;5.53;;;;;;;;;;2131222;27;20487;-46
2021/08/13 02:04:25;;;;;;;8.85;5.80;;;;;;;;;;2131825;27;20054;-46
2021/08/13 02:05:28;;;;;;;6.35;4.90;;;;;;;;;;2129591;27;20249;-47
2021/08/13 02:06:30;;;;;;;8.05;5.15;;;;;;;;;;2131359;27;20477;-46
2021/08/13 02:07:31;;;;;;;9.80;5.45;;;;;;;;;;2131623;27;20130;-47
2021/08/13 02:08:34;;;;;;;10.52;6.03;;;;;;;;;;2129455;27;20039;-46
2021/08/13 02:09:35;;;;;;;14.50;5.80;;;;;;;;;;2131465;27;20138;-48
2021/08/13 02:10:39;;;;;;;8.45;5.55;;;;;;;;;;2131771;27;20171;-47
2021/08/13 02:11:40;;;;;;;7.97;5.45;;;;;;;;;;2129298;27;20046;-46
2021/08/13 02:12:41;;;;;;;11.47;5.60;;;;;;;;;;2131449;27;20057;-47
2021/08/13 02:13:42;;;;;;;8.18;5.45;;;;;;;;;;2131605;27;20490;-49
2021/08/13 02:14:43;;;;;;;9.50;5.38;;;;;;;;;;2129281;27;20034;-49
2021/08/13 02:15:48;;;;;;;10.40;6.07;;;;;;;;;;2131670;27;20491;-47
2021/08/13 02:16:50;;;;;;;7.53;5.40;;;;;;;;;;2131605;27;20065;-50
2021/08/13 02:17:56;;;;;;;8.85;5.60;;;;;;;;;;2129600;27;20079;-50
2021/08/13 02:19:01;;;;;;;10.77;5.70;;;;;;;;;;2131598;27;20398;-47
2021/08/13 02:20:05;;;;;;;12.15;5.53;;;;;;;;;;2130417;27;20042;-48
2021/08/13 02:21:09;;;;;;;9.88;6.30;;;;;;;;;;2130068;27;20476;-46
2021/08/13 02:22:10;;;;;;;7.70;5.20;;;;;;;;;;2131612;27;20125;-50
2021/08/13 02:23:11;;;;;;;7.90;5.55;;;;;;;;;;2129460;27;20137;-46
2021/08/13 02:24:12;;;;;;;10.17;5.60;;;;;;;;;;2130371;27;20062;-49
2021/08/13 02:25:13;;;;;;;7.85;5.65;;;;;;;;;;2131574;27;20398;-49
2021/08/13 02:26:14;;;;;;;9.43;5.78;;;;;;;;;;2129540;27;20086;-46
2021/08/13 02:27:15;;;;;;;12.57;5.70;;;;;;;;;;2131110;27;20454;-48
2021/08/13 02:28:16;;;;;;;8.57;5.80;;;;;;;;;;2131434;27;20399;-46
2021/08/13 02:29:17;;;;;;;10.63;6.17;;;;;;;;;;2129410;27;20039;-47
2021/08/13 02:30:18;;;;;;;10.70;5.72;;;;;;;;;;2131289;27;20417;-48
2021/08/13 02:31:19;;;;;;;10.82;6.20;;;;;;;;;;2130744;27;20106;-49
2021/08/13 02:32:21;;;;;;;8.38;5.82;;;;;;;;;;2127880;27;20215;-48
2021/08/13 02:33:22;;;;;;;8.82;5.53;;;;;;;;;;2130418;27;20448;-50
2021/08/13 02:34:24;;;;;;;9.23;5.40;;;;;;;;;;2131632;27;20047;-49
2021/08/13 02:35:25;;;;;;;9.00;6.20;;;;;;;;;;2129337;27;20141;-50
2021/08/13 02:36:29;;;;;;;7.85;5.57;;;;;;;;;;2131532;27;20102;-50
2021/08/13 02:37:34;;;;;;;10.00;6.18;;;;;;;;;;2131531;27;20126;-47
2021/08/13 02:38:38;;;;;;;11.45;6.47;;;;;;;;;;2129548;27;20043;-46
2021/08/13 02:39:40;;;;;;;16.10;7.00;;;;;;;;;;2131465;27;20043;-50
2021/08/13 02:40:41;;;;;;;;;;;;;;;;;;2131480;27;20047;-49
2021/08/13 02:41:42;;;;;;;8.90;5.35;;;;;;;;;;2129300;27;19919;-49
2021/08/13 02:42:45;;;;;;;9.63;5.63;;;;;;;;;;2131511;27;20172;-47
2021/08/13 02:43:49;;;;;;;11.63;5.75;;;;;;;;;;2130134;27;20526;-47
2021/08/13 02:44:52;;;;;;;12.07;6.32;;;;;;;;;;2130115;27;20088;-47
2021/08/13 02:45:54;;;;;;;9.45;6.07;;;;;;;;;;2131428;27;20102;-50
2021/08/13 02:46:58;;;;;;;10.23;5.93;;;;;;;;;;2130404;27;20525;-46
2021/08/13 02:47:59;;;;;;;10.13;5.68;;;;;;;;;;2130906;27;20199;-50
2021/08/13 02:49:01;;;;;;;9.98;5.75;;;;;;;;;;2131478;27;20063;-46
2021/08/13 02:50:04;;;;;;;8.75;5.93;;;;;;;;;;2129235;27;20103;-50
2021/08/13 02:51:06;;;;;;;7.70;5.72;;;;;;;;;;2131086;27;20479;-45
2021/08/13 02:52:07;;;;;;;12.35;6.25;;;;;;;;;;2131593;27;20125;-47
2021/08/13 02:53:10;;;;;;;13.63;6.00;;;;;;;;;;2125080;27;20038;-46
2021/08/13 02:54:15;;;;;;;8.90;5.82;;;;;;;;;;2131287;27;20520;-49
2021/08/13 02:55:19;;;;;;;9.70;6.35;;;;;;;;;;2131388;27;20526;-46
2021/08/13 02:56:21;;;;;;;9.65;6.30;;;;;;;;;;2128965;27;20049;-46
2021/08/13 02:57:24;;;;;;;10.18;6.28;;;;;;;;;;2131285;27;20121;-46
2021/08/13 02:58:29;;;;;;;10.98;5.97;;;;;;;;;;2131088;27;20057;-46
2021/08/13 02:59:31;;;;;;;11.43;6.50;;;;;;;;;;2129331;27;20422;-46
2021/08/13 03:00:32;;;;;;;9.93;6.63;;;;;;;;;;2131362;27;20050;-46
2021/08/13 03:01:36;;;;;;;11.00;6.30;;;;;;;;;;2130155;27;20114;-46
2021/08/13 03:02:38;;;;;;;11.75;6.93;;;;;;;;;;2129614;27;20039;-48
2021/08/13 03:03:40;;;;;;;9.65;6.97;;;;;;;;;;2131422;27;20126;-46
2021/08/13 03:04:41;;;;;;;;;;;;;;;;;;2129837;27;20133;-47
2021/08/13 03:05:45;;;;;;;9.50;6.30;;;;;;;;;;2130825;27;19971;-49
2021/08/13 03:06:46;;;;;;;10.32;6.80;;;;;;;;;;2131441;27;20129;-47
2021/08/13 03:07:47;;;;;;;11.70;6.43;;;;;;;;;;2129283;27;20074;-46
2021/08/13 03:08:49;;;;;;;9.90;6.80;;;;;;;;;;2131032;27;20130;-47
2021/08/13 03:09:50;;;;;;;22.02;7.30;;;;;;;;;;2131430;27;20171;-46
2021/08/13 03:10:52;;;;;;;11.30;6.93;;;;;;;;;;2128964;27;20688;-46
2021/08/13 03:11:53;;;;;;;16.65;7.05;;;;;;;;;;2131183;27;20126;-47
2021/08/13 03:12:54;;;;;;;10.15;6.45;;;;;;;;;;2131278;27;20047;-48
2021/08/13 03:13:57;;;;;;;11.02;6.72;;;;;;;;;;2128927;27;20046;-46
2021/08/13 03:14:57;;;;;;;;;;;;;;;;;;2131583;27;20525;-47
2021/08/13 03:15:59;;;;;;;13.35;6.70;;;;;;;;;;2131221;27;19926;-46
2021/08/13 03:17:00;;;;;;;9.27;5.90;;;;;;;;;;2128744;27;20420;-50
2021/08/13 03:18:02;;;;;;;10.95;6.18;;;;;;;;;;2130736;27;20557;-47
2021/08/13 03:19:03;;;;;;;11.60;6.47;;;;;;;;;;2131435;27;20114;-46
2021/08/13 03:20:05;;;;;;;10.38;6.35;;;;;;;;;;2128551;27;20397;-47
2021/08/13 03:21:07;;;;;;;7.50;5.57;;;;;;;;;;2131354;27;20078;-48
2021/08/13 03:22:09;;;;;;;10.13;6.63;;;;;;;;;;2130801;27;20122;-48
2021/08/13 03:23:10;;;;;;;10.13;6.70;;;;;;;;;;2129370;27;20134;-46
2021/08/13 03:24:12;;;;;;;7.63;5.97;;;;;;;;;;2131332;27;20195;-46
2021/08/13 03:25:13;;;;;;;;;;;;;;;;;;2131324;27;20061;-47
2021/08/13 03:26:14;;;;;;;12.02;6.78;;;;;;;;;;2129483;27;19927;-45
2021/08/13 03:27:16;;;;;;;8.63;6.32;;;;;;;;;;2131150;27;20046;-50
2021/08/13 03:28:17;;;;;;;10.68;6.43;;;;;;;;;;2129794;27;20133;-50
2021/08/13 03:29:19;;;;;;;10.40;7.03;;;;;;;;;;2130436;27;20402;-47
2021/08/13 03:30:19;;;;;;;10.70;6.45;;;;;;;;;;2131335;27;20125;-46
2021/08/13 03:31:30;;;;;;;15.97;7.47;;;;;;;;;;2129176;27;20042;-47
2021/08/13 03:32:31;;;;;;;15.25;6.78;;;;;;;;;;2130348;27;20491;-47
2021/08/13 03:33:33;;;;;;;11.93;6.87;;;;;;;;;;2131223;27;20046;-49
2021/08/13 03:34:34;;;;;;;13.50;6.82;;;;;;;;;;2129162;27;20070;-49
2021/08/13 03:35:35;;;;;;;9.20;6.10;;;;;;;;;;2131039;27;20483;-45
2021/08/13 03:36:37;;;;;;;12.02;7.15;;;;;;;;;;2131275;27;20137;-46
2021/08/13 03:37:38;;;;;;;9.50;6.30;;;;;;;;;;2128839;27;20130;-49
2021/08/13 03:38:39;;;;;;;11.10;6.83;;;;;;;;;;2131159;27;20091;-46
2021/08/13 03:39:40;;;;;;;13.60;6.78;;;;;;;;;;2131254;27;20095;-46
2021/08/13 03:40:41;;;;;;;10.73;6.60;;;;;;;;;;2128675;27;20527;-47
2021/08/13 03:41:42;;;;;;;15.55;6.88;;;;;;;;;;2130354;27;20133;-49
2021/08/13 03:42:43;;;;;;;11.05;6.30;;;;;;;;;;2130977;27;20268;-47
2021/08/13 03:43:44;;;;;;;10.77;6.57;;;;;;;;;;2129787;27;20479;-46
2021/08/13 03:44:45;;;;;;;11.85;6.15;;;;;;;;;;2132589;27;20574;-49
2021/08/13 03:45:46;;;;;;;10.70;6.43;;;;;;;;;;2132737;27;20129;-49
2021/08/13 03:46:48;;;;;;;12.07;6.90;;;;;;;;;;2130110;27;20479;-50
2021/08/13 03:47:48;;;;;;;8.60;6.22;;;;;;;;;;2132550;27;20537;-47
2021/08/13 03:48:49;;;;;;;10.50;7.00;;;;;;;;;;2132142;27;20149;-45
2021/08/13 03:49:50;;;;;;;12.55;6.72;;;;;;;;;;2130701;27;20102;-48
2021/08/13 03:50:51;;;;;;;9.23;6.60;;;;;;;;;;2132697;27;20123;-46
2021/08/13 03:51:56;;;;;;;12.30;5.68;;;;;;;;;;2132258;27;20283;-46
2021/08/13 03:52:57;;;;;;;9.48;5.50;;;;;;;;;;2129608;27;20573;-50
2021/08/13 03:53:58;;;;;;;12.00;5.93;;;;;;;;;;2132573;27;20043;-47
2021/08/13 03:54:59;;;;;;;7.50;5.27;;;;;;;;;;2131358;27;20047;-49
2021/08/13 03:56:00;;;;;;;9.90;5.72;;;;;;;;;;2131619;27;20451;-49
2021/08/13 03:57:02;;;;;;;8.53;5.80;;;;;;;;;;2132496;27;20099;-48
2021/08/13 03:58:03;;;;;;;12.48;5.38;;;;;;;;;;2130482;27;20487;-49
2021/08/13 03:59:04;;;;;;;9.07;5.68;;;;;;;;;;2132196;27;20035;-46
2021/08/13 04:00:05;;;;;;;9.20;5.60;;;;;;;;;;2132345;27;20133;-47
2021/08/13 04:01:07;;;;;;;7.68;5.78;;;;;;;;;;2130540;27;20046;-47
2021/08/13 04:02:08;;;;;;;9.68;4.85;;;;;;;;;;2132147;27;20134;-47
2021/08/13 04:03:10;;;;;;;11.30;5.30;;;;;;;;;;2132523;27;20042;-47
2021/08/13 04:04:11;;;;;;;9.95;5.38;;;;;;;;;;2130538;27;20051;-49
2021/08/13 04:05:12;;;;;;;8.83;5.80;;;;;;;;;;2132413;27;20459;-46
2021/08/13 04:06:13;;;;;;;9.48;4.63;;;;;;;;;;2132583;27;20076;-46
2021/08/13 04:07:15;;;;;;;8.83;5.60;;;;;;;;;;2130218;27;20046;-49
2021/08/13 04:08:15;;;;;;;6.35;4.70;;;;;;;;;;2132258;27;20133;-50
2021/08/13 04:09:17;;;;;;;7.37;5.30;;;;;;;;;;2132515;27;20093;-48
2021/08/13 04:10:18;;;;;;;7.75;5.00;;;;;;;;;;2130142;27;20398;-50
2021/08/13 04:11:19;;;;;;;7.47;5.80;;;;;;;;;;2132203;27;20054;-47
2021/08/13 04:12:20;;;;;;;7.05;5.28;;;;;;;;;;2132502;27;20125;-45
2021/08/13 04:13:21;;;;;;;8.18;5.30;;;;;;;;;;2129839;27;20045;-47
2021/08/13 04:14:22;;;;;;;12.63;5.60;;;;;;;;;;2132569;27;20054;-46
2021/08/13 04:15:23;;;;;;;9.27;6.23;;;;;;;;;;2132519;27;20428;-47
2021/08/13 04:16:24;;;;;;;9.77;5.43;;;;;;;;;;2128244;27;20129;-48
2021/08/13 04:17:25;;;;;;;13.75;6.63;;;;;;;;;;2132485;27;20050;-48
2021/08/13 04:18:26;;;;;;;12.25;5.95;;;;;;;;;;2132426;27;20133;-46
2021/08/13 04:19:27;;;;;;;11.67;5.13;;;;;;;;;;2130071;27;20046;-48
2021/08/13 04:20:28;;;;;;;7.28;5.38;;;;;;;;;;2132367;27;20054;-48
2021/08/13 04:21:29;;;;;;;8.37;5.13;;;;;;;;;;2132120;27;20046;-47
2021/08/13 04:22:31;;;;;;;7.03;4.88;;;;;;;;;;2130319;27;20137;-48
2021/08/13 04:23:32;;;;;;;11.15;5.78;;;;;;;;;;2132339;27;20556;-46
2021/08/13 04:24:33;;;;;;;9.07;5.20;;;;;;;;;;2131979;27;20076;-49
2021/08/13 04:25:34;;;;;;;6.28;4.72;;;;;;;;;;2130723;27;20055;-49
2021/08/13 04:26:35;;;;;;;11.38;5.53;;;;;;;;;;2132483;27;20074;-46
2021/08/13 04:27:37;;;;;;;9.38;5.35;;;;;;;;;;2130935;27;20108;-47
2021/08/13 04:28:37;;;;;;;9.50;5.70;;;;;;;;;;2131259;27;20045;-46
2021/08/13 04:29:38;;;;;;;10.57;6.10;;;;;;;;;;2132241;27;20043;-47
2021/08/13 04:30:40;;;;;;;9.70;6.10;;;;;;;;;;2130432;27;23912;-46
2021/08/13 04:31:40;;;;;;;6.82;4.65;;;;;;;;;;2131909;27;20043;-46
2021/08/13 04:32:42;;;;;;;12.30;5.53;;;;;;;;;;2132367;27;20046;-46
2021/08/13 04:33:42;;;;;;;10.10;6.40;;;;;;;;;;2130210;27;20506;-45
2021/08/13 04:34:44;;;;;;;11.15;6.35;;;;;;;;;;2132072;27;20039;-46
2021/08/13 04:35:45;;;;;;;10.75;5.75;;;;;;;;;;2132163;27;20137;-46
2021/08/13 04:36:46;;;;;;;12.27;6.25;;;;;;;;;;2130272;27;20515;-47
2021/08/13 04:37:48;;;;;;;11.40;6.10;;;;;;;;;;2131869;27;20086;-47
2021/08/13 04:38:52;;;;;;;10.00;5.82;;;;;;;;;;2132241;27;20487;-47
2021/08/13 04:39:53;;;;;;;8.15;6.13;;;;;;;;;;2130161;27;20482;-50
2021/08/13 04:40:54;;;;;;;7.73;5.63;;;;;;;;;;2132084;27;20068;-46
2021/08/13 04:41:54;;;;;;;12.38;5.93;;;;;;;;;;2132388;27;20129;-47
2021/08/13 04:42:55;;;;;;;9.67;5.50;;;;;;;;;;2129940;27;20483;-49
2021/08/13 04:43:57;;;;;;;9.32;6.00;;;;;;;;;;2132110;27;20068;-47
2021/08/13 04:44:58;;;;;;;11.43;6.25;;;;;;;;;;2132249;27;20125;-48
2021/08/13 04:46:10;;;;;;;10.40;5.53;;;;;;;;;;2128967;27;20082;-48
2021/08/13 04:47:11;;;;;;;7.85;4.88;;;;;;;;;;2132188;27;20046;-47
2021/08/13 04:48:12;;;;;;;7.90;5.33;;;;;;;;;;2131877;27;20094;-47
2021/08/13 04:49:15;;;;;;;9.95;4.88;;;;;;;;;;2130096;27;20046;-46
2021/08/13 04:50:16;;;;;;;8.00;4.43;;;;;;;;;;2132301;27;20047;-47
2021/08/13 04:51:17;;;;;;;10.23;4.85;;;;;;;;;;2131441;27;20558;-48
2021/08/13 04:52:20;;;;;;;9.37;4.87;;;;;;;;;;2127883;27;20238;-46
2021/08/13 04:53:21;;;;;;;8.27;4.78;;;;;;;;;;2123752;27;20053;-46
2021/08/13 04:54:22;;;;;;;6.13;4.57;;;;;;;;;;2124301;27;20050;-47
2021/08/13 04:55:23;;;;;;;11.38;4.82;;;;;;;;;;2130952;27;20137;-46
2021/08/13 04:56:24;;;;;;;7.05;4.38;;;;;;;;;;2132079;27;20050;-46
2021/08/13 04:57:25;;;;;;;8.13;4.80;;;;;;;;;;2130101;27;20129;-46
2021/08/13 04:58:27;;;;;;;8.23;4.30;;;;;;;;;;2131796;27;20050;-50
2021/08/13 04:59:27;;;;;;;7.53;4.75;;;;;;;;;;2132137;27;20522;-46
2021/08/13 05:00:29;;;;;;;9.25;5.00;;;;;;;;;;2129952;27;20134;-46
2021/08/13 05:01:30;;;;;;;6.30;4.22;;;;;;;;;;2131757;27;20049;-47
2021/08/13 05:02:31;;;;;;;8.02;4.90;;;;;;;;;;2131473;27;20046;-48
2021/08/13 05:03:32;;;;;;;8.10;4.32;;;;;;;;;;2129645;27;20046;-46
2021/08/13 05:04:33;;;;;;;9.67;4.90;;;;;;;;;;2131897;27;20130;-47
2021/08/13 05:05:34;;;;;;;7.38;4.10;;;;;;;;;;2131843;27;20398;-46
2021/08/13 05:06:35;;;;;;;9.50;4.50;;;;;;;;;;2130813;27;20046;-47
2021/08/13 05:07:36;;;;;;;7.45;4.32;;;;;;;;;;2131703;27;20194;-46
2021/08/13 05:08:38;;;;;;;8.60;4.47;;;;;;;;;;2131812;27;20561;-50
2021/08/13 05:09:39;;;;;;;7.38;4.18;;;;;;;;;;2130313;27;20043;-47
2021/08/13 05:10:40;;;;;;;5.67;4.40;;;;;;;;;;2131910;27;20084;-46
2021/08/13 05:11:41;;;;;;;10.68;5.03;;;;;;;;;;2131856;27;20499;-48
2021/08/13 05:12:43;;;;;;;8.13;4.43;;;;;;;;;;2129559;27;20046;-46
2021/08/13 05:13:44;;;;;;;8.45;4.45;;;;;;;;;;2131918;27;20424;-47
2021/08/13 05:14:45;;;;;;;5.40;4.35;;;;;;;;;;2131810;27;20035;-47
2021/08/13 05:15:46;;;;;;;6.97;4.25;;;;;;;;;;2129515;27;20073;-47
2021/08/13 05:16:47;;;;;;;6.22;4.38;;;;;;;;;;2128965;27;20418;-46
2021/08/13 05:17:48;;;;;;;7.07;4.72;;;;;;;;;;2131441;27;20045;-48
2021/08/13 05:18:50;;;;;;;10.23;4.75;;;;;;;;;;2129834;27;21220;-46
2021/08/13 05:19:51;;;;;;;9.68;4.70;;;;;;;;;;2131811;27;20042;-46
2021/08/13 05:20:52;;;;;;;7.47;4.17;;;;;;;;;;2131305;27;20046;-46
2021/08/13 05:21:53;;;;;;;9.38;4.40;;;;;;;;;;2129942;27;20098;-46
2021/08/13 05:22:54;;;;;;;7.60;4.37;;;;;;;;;;2131862;27;20543;-49
2021/08/13 05:23:56;;;;;;;16.38;4.50;;;;;;;;;;2130986;27;20046;-48
2021/08/13 05:24:57;;;;;;;;;;;;;;;;;;2131021;27;20070;-45
2021/08/13 05:25:59;;;;;;;10.48;4.47;;;;;;;;;;2131954;27;19919;-43
2021/08/13 05:26:59;;;;;;;7.40;4.22;;;;;;;;;;2130131;27;20084;-42
2021/08/13 05:28:01;;;;;;;8.10;4.07;;;;;;;;;;2130322;27;20047;-43
2021/08/13 05:29:01;;;;;;;11.73;4.43;;;;;;;;;;2131638;27;20497;-43
2021/08/13 05:30:03;;;;;;;14.63;4.40;;;;;;;;;;2129611;27;20057;-43
2021/08/13 05:31:04;;;;;;;8.10;4.05;;;;;;;;;;2130856;27;20129;-43
2021/08/13 05:32:05;;;;;;;7.07;4.10;;;;;;;;;;2131626;27;20099;-43
2021/08/13 05:33:07;;;;;;;6.97;3.60;;;;;;;;;;2130308;27;20563;-43
2021/08/13 05:34:08;;;;;;;17.33;4.50;;;;;;;;;;2131971;27;20089;-43
2021/08/13 05:35:10;;;;;;;9.90;4.13;;;;;;;;;;2132431;27;20501;-48
2021/08/13 05:36:11;;;;;;;8.77;4.30;;;;;;;;;;2131060;27;20134;-48
2021/08/13 05:37:12;;;;;;;9.00;3.72;;;;;;;;;;2131541;27;20070;-47
2021/08/13 05:38:13;;;;;;;7.43;4.60;;;;;;;;;;2131722;27;20062;-47
2021/08/13 05:39:15;;;;;;;11.50;4.50;;;;;;;;;;2129568;27;20125;-43
2021/08/13 05:40:16;;;;;;;14.00;3.85;;;;;;;;;;2131450;27;20515;-44
2021/08/13 05:41:17;;;;;;;11.52;5.32;;;;;;;;;;2131614;27;20122;-43
2021/08/13 05:42:18;;;;;;;5.43;3.80;;;;;;;;;;2129395;27;21246;-45
2021/08/13 05:43:18;;;;;;;6.30;3.95;;;;;;;;;;2130544;27;20051;-44
2021/08/13 05:44:20;;;;;;;5.50;3.37;;;;;;;;;;2131092;27;20047;-43
2021/08/13 05:45:21;;;;;;;5.78;3.40;;;;;;;;;;2129031;27;20129;-43
2021/08/13 05:46:22;;;;;;;7.28;3.42;;;;;;;;;;2128172;27;20130;-42
2021/08/13 05:47:23;;;;;;;13.73;3.90;;;;;;;;;;2130881;27;20410;-42
2021/08/13 05:48:24;;;;;;;6.57;3.80;;;;;;;;;;2128230;27;20124;-43
2021/08/13 05:49:25;;;;;;;8.73;4.20;;;;;;;;;;2131095;27;20139;-43
2021/08/13 05:50:27;;;;;;;5.32;3.53;;;;;;;;;;2130980;27;20482;-42
2021/08/13 05:51:28;;;;;;;8.68;4.47;;;;;;;;;;2130535;27;20054;-42
2021/08/13 05:52:29;;;;;;;5.77;3.73;;;;;;;;;;2128406;27;21578;-44
2021/08/13 05:53:29;;;;;;;7.68;4.13;;;;;;;;;;2130921;27;20055;-42
2021/08/13 05:54:31;;;;;;;5.97;3.60;;;;;;;;;;2129341;27;20042;-42
2021/08/13 05:55:32;;;;;;;7.35;3.47;;;;;;;;;;2126307;27;20133;-42
2021/08/13 05:56:33;;;;;;;6.63;3.90;;;;;;;;;;2123949;27;20043;-42
2021/08/13 05:57:34;;;;;;;5.97;4.03;;;;;;;;;;2127343;27;20046;-42
2021/08/13 05:59:54;;;;;;;10.15;4.00;;;;;;;;;;2127583;27;20130;-42
2021/08/13 06:00:55;;;;;;;7.43;4.55;;;;;;;;;;2129541;27;20047;-42
2021/08/13 06:01:56;;;;;;;13.10;4.60;;;;;;;;;;2131037;27;20551;-42
2021/08/13 06:02:58;;;;;;;15.90;4.43;;;;;;;;;;2128976;27;20554;-43
2021/08/13 06:04:00;;;;;;;6.18;3.97;;;;;;;;;;2130797;27;20042;-43
2021/08/13 06:05:00;;;;;;;8.55;4.65;;;;;;;;;;2129468;27;20559;-47
2021/08/13 06:06:02;;;;;;;7.03;4.23;;;;;;;;;;2129028;27;20076;-47
2021/08/13 06:07:03;;;;;;;8.65;4.32;;;;;;;;;;2130657;27;20039;-46
2021/08/13 06:08:04;;;;;;;10.53;3.73;;;;;;;;;;2130758;27;20046;-46
2021/08/13 06:09:05;;;;;;;8.50;4.68;;;;;;;;;;2128499;27;20373;-46
2021/08/13 06:10:07;;;;;;;11.90;4.60;;;;;;;;;;2131629;27;20043;-53